Time;durP1;ratioP1;P1;durP2;ratioP2;P2;SDS_P1;SDS_P2;PMS_P1;PMS_P2;Temp;Humidity;BMP_temperature;BMP_pressure;BME280_temperature;BME280_humidity;BME280_pressure;Samples;Min_cycle;Max_cycle;Signal;HPM_P1;HPM_P2
2023/02/06 00:00:38;;;;;;;81.72;17.58;;;4.60;99.90;;;;;;5020114;28;20165;-84
2023/02/06 00:03:04;;;;;;;86.32;15.45;;;4.70;99.90;;;;;;5001902;28;20170;-83
2023/02/06 00:05:30;;;;;;;81.40;16.52;;;4.70;99.90;;;;;;5002818;28;20193;-83
2023/02/06 00:07:55;;;;;;;82.57;21.40;;;4.60;99.90;;;;;;5018698;28;20636;-84
2023/02/06 00:10:21;;;;;;;85.43;19.60;;;4.60;99.90;;;;;;5020029;28;20165;-84
2023/02/06 00:12:49;;;;;;;88.90;19.90;;;4.50;99.90;;;;;;5019516;28;20184;-83
2023/02/06 00:15:16;;;;;;;88.53;22.38;;;4.40;99.90;;;;;;5019766;28;20244;-84
2023/02/06 00:17:42;;;;;;;79.18;15.68;;;4.50;99.90;;;;;;5020105;28;20166;-84
2023/02/06 00:20:09;;;;;;;87.17;13.77;;;4.50;99.90;;;;;;5002728;28;20703;-84
2023/02/06 00:22:35;;;;;;;82.43;12.98;;;4.40;99.90;;;;;;5002547;28;21023;-84
2023/02/06 00:25:01;;;;;;;78.80;9.20;;;4.40;99.90;;;;;;5002051;28;20232;-84
2023/02/06 00:27:26;;;;;;;79.73;10.13;;;4.30;99.90;;;;;;5002774;28;20166;-84
2023/02/06 00:29:52;;;;;;;80.23;10.30;;;4.10;99.90;;;;;;5020168;28;20162;-83
2023/02/06 00:32:18;;;;;;;83.27;13.57;;;3.90;99.90;;;;;;5020062;28;20221;-84
2023/02/06 00:34:43;;;;;;;76.60;12.60;;;3.80;99.90;;;;;;5018804;28;20197;-83
2023/02/06 00:37:09;;;;;;;79.27;10.67;;;3.70;99.90;;;;;;5018694;28;20433;-83
2023/02/06 00:39:35;;;;;;;80.10;11.82;;;3.60;99.90;;;;;;5002408;28;20650;-84
2023/02/06 00:42:01;;;;;;;80.72;16.92;;;3.50;99.90;;;;;;5018050;28;20573;-84
2023/02/06 00:44:27;;;;;;;83.03;16.15;;;3.40;99.90;;;;;;5019578;28;20196;-84
2023/02/06 00:46:54;;;;;;;83.05;16.60;;;3.30;99.90;;;;;;5020098;28;20165;-84
2023/02/06 00:49:20;;;;;;;82.95;21.73;;;3.20;99.90;;;;;;5019758;28;20162;-84
2023/02/06 00:51:47;;;;;;;77.75;20.20;;;3.10;99.90;;;;;;5019875;28;20189;-84
2023/02/06 00:54:12;;;;;;;80.28;23.15;;;3.00;99.90;;;;;;5019472;28;20165;-83
2023/02/06 00:56:38;;;;;;;94.67;24.00;;;3.00;99.90;;;;;;5019175;28;20648;-84
2023/02/06 00:59:04;;;;;;;81.97;23.90;;;2.80;99.90;;;;;;5019933;28;20173;-84
2023/02/06 01:01:29;;;;;;;79.10;24.83;;;2.70;99.90;;;;;;5019243;28;20193;-84
2023/02/06 01:03:55;;;;;;;74.57;21.03;;;2.70;99.90;;;;;;5018720;28;20222;-83
2023/02/06 01:06:21;;;;;;;82.83;21.43;;;2.70;99.90;;;;;;5018090;28;20185;-83
2023/02/06 01:08:47;;;;;;;76.17;21.70;;;2.70;99.90;;;;;;5001633;28;20169;-84
2023/02/06 01:11:19;;;;;;;79.53;21.80;;;2.60;99.90;;;;;;5019457;28;20428;-84
2023/02/06 01:13:45;;;;;;;80.05;21.20;;;2.50;99.90;;;;;;5019086;28;20162;-83
2023/02/06 01:16:14;;;;;;;89.40;23.23;;;2.50;99.90;;;;;;5019104;28;20169;-83
2023/02/06 01:18:40;;;;;;;81.35;20.45;;;2.60;99.90;;;;;;5000937;28;20289;-84
2023/02/06 01:21:08;;;;;;;77.97;20.65;;;2.70;99.90;;;;;;5000887;28;20212;-84
2023/02/06 01:23:35;;;;;;;89.05;27.45;;;2.60;99.90;;;;;;5019235;28;20185;-83
2023/02/06 01:26:07;;;;;;;79.60;24.75;;;2.60;99.90;;;;;;5018808;28;20203;-84
2023/02/06 01:28:37;;;;;;;87.75;25.02;;;2.50;99.90;;;;;;5018992;28;20173;-84
2023/02/06 01:31:23;;;;;;;83.22;24.75;;;2.60;99.90;;;;;;5001251;28;20188;-84
2023/02/06 01:33:53;;;;;;;82.25;27.55;;;2.60;99.90;;;;;;5001717;28;20520;-84
2023/02/06 01:36:20;;;;;;;78.72;25.42;;;2.50;99.90;;;;;;5018168;28;20173;-83
2023/02/06 01:38:46;;;;;;;82.32;26.58;;;2.40;99.90;;;;;;5018212;28;20241;-84
2023/02/06 01:41:13;;;;;;;82.97;18.80;;;2.30;99.90;;;;;;5000372;28;20229;-83
2023/02/06 01:44:05;;;;;;;81.10;21.02;;;2.30;99.90;;;;;;5018375;28;20198;-83
2023/02/06 01:46:31;;;;;;;85.28;20.73;;;2.20;99.90;;;;;;5018473;28;20229;-84
2023/02/06 01:48:57;;;;;;;76.90;19.27;;;2.10;99.90;;;;;;5016974;28;20216;-84
2023/02/06 01:51:24;;;;;;;80.47;22.00;;;2.10;99.90;;;;;;5000641;28;20800;-83
2023/02/06 01:53:56;;;;;;;81.63;23.55;;;2.10;99.90;;;;;;5018160;28;20162;-84
2023/02/06 01:56:23;;;;;;;76.32;21.92;;;2.10;99.90;;;;;;5001093;28;20173;-83
2023/02/06 01:58:57;;;;;;;75.47;18.80;;;2.10;99.90;;;;;;5018156;28;20169;-84
2023/02/06 02:01:23;;;;;;;84.35;18.83;;;2.10;99.90;;;;;;5016525;28;20200;-84
2023/02/06 02:03:54;;;;;;;80.87;19.53;;;2.10;99.90;;;;;;4999882;28;20280;-83
2023/02/06 02:06:23;;;;;;;81.18;23.02;;;2.00;99.90;;;;;;5018037;28;20159;-84
2023/02/06 02:08:53;;;;;;;81.38;18.05;;;1.90;99.90;;;;;;5017428;28;20154;-83
2023/02/06 02:11:40;;;;;;;82.72;13.95;;;1.90;99.90;;;;;;5017528;28;20189;-83
2023/02/06 02:14:09;;;;;;;84.88;17.67;;;1.80;99.90;;;;;;5018061;28;20147;-83
2023/02/06 02:16:47;;;;;;;81.50;14.13;;;1.70;99.90;;;;;;5017581;28;20220;-84
2023/02/06 02:19:30;;;;;;;92.30;10.25;;;1.60;99.90;;;;;;5004004;28;20169;-83
2023/02/06 02:22:15;;;;;;;80.97;13.27;;;1.60;99.90;;;;;;5019705;28;20208;-83
2023/02/06 02:25:06;;;;;;;74.32;8.52;;;1.50;99.90;;;;;;5021397;28;20213;-85
2023/02/06 02:28:05;;;;;;;77.95;11.05;;;1.60;99.90;;;;;;5021391;28;20204;-83
2023/02/06 02:30:50;;;;;;;72.90;8.50;;;1.60;99.90;;;;;;5021085;28;20161;-83
2023/02/06 02:33:41;;;;;;;82.35;11.15;;;1.50;99.90;;;;;;5003793;28;20158;-83
2023/02/06 02:36:25;;;;;;;83.80;12.40;;;1.50;99.90;;;;;;5021292;28;20169;-83
2023/02/06 02:39:14;;;;;;;80.50;12.82;;;1.70;99.90;;;;;;5020857;28;20182;-83
2023/02/06 02:42:03;;;;;;;78.88;13.82;;;1.80;99.90;;;;;;5019903;28;20190;-83
2023/02/06 02:44:46;;;;;;;79.50;15.70;;;1.90;99.90;;;;;;5021590;28;20190;-84
2023/02/06 02:47:15;;;;;;;76.45;18.02;;;1.90;99.90;;;;;;5021329;28;20162;-84
2023/02/06 02:49:43;;;;;;;76.43;15.68;;;1.90;99.90;;;;;;5020798;28;20167;-83
2023/02/06 02:52:10;;;;;;;83.38;13.63;;;1.90;99.90;;;;;;5020212;28;20174;-84
2023/02/06 02:54:36;;;;;;;77.68;10.25;;;1.80;99.90;;;;;;5020422;28;20201;-84
2023/02/06 02:57:13;;;;;;;79.60;9.70;;;1.70;99.90;;;;;;5020824;28;20170;-84
2023/02/06 02:59:49;;;;;;;78.88;9.27;;;1.70;99.90;;;;;;5022150;28;20241;-86
2023/02/06 03:02:19;;;;;;;76.03;8.38;;;1.70;99.90;;;;;;5021810;28;20178;-84
2023/02/06 03:04:52;;;;;;;73.90;10.18;;;1.60;99.90;;;;;;5021213;28;20200;-83
2023/02/06 03:07:49;;;;;;;76.72;12.23;;;1.60;99.90;;;;;;5020288;28;20236;-83
2023/02/06 03:10:36;;;;;;;88.85;18.02;;;1.70;99.90;;;;;;5002961;28;20233;-83
2023/02/06 03:13:04;;;;;;;83.97;19.90;;;1.80;99.90;;;;;;5021610;28;20150;-84
2023/02/06 03:15:40;;;;;;;77.05;18.83;;;1.90;99.90;;;;;;5020830;28;20162;-83
2023/02/06 03:18:22;;;;;;;82.65;12.15;;;1.90;99.90;;;;;;5002837;28;20157;-83
2023/02/06 03:20:50;;;;;;;78.13;13.05;;;1.80;99.90;;;;;;5020691;28;20185;-83
2023/02/06 03:23:29;;;;;;;78.72;14.18;;;1.80;99.90;;;;;;5021093;28;20166;-84
2023/02/06 03:25:58;;;;;;;80.57;15.70;;;1.90;99.90;;;;;;5020611;28;20252;-83
2023/02/06 03:28:36;;;;;;;87.07;9.93;;;1.90;99.90;;;;;;5020370;28;20154;-83
2023/02/06 03:31:06;;;;;;;82.53;10.70;;;1.80;99.90;;;;;;5003985;28;20268;-83
2023/02/06 03:33:44;;;;;;;75.15;13.25;;;1.90;99.90;;;;;;5020392;28;20187;-83
2023/02/06 03:36:15;;;;;;;91.38;11.55;;;2.00;99.90;;;;;;5021323;28;20150;-84
2023/02/06 03:38:45;;;;;;;79.50;11.30;;;1.90;99.90;;;;;;5021013;28;20205;-83
2023/02/06 03:41:13;;;;;;;84.85;14.32;;;1.90;99.90;;;;;;5020791;28;20648;-83
2023/02/06 03:43:42;;;;;;;74.68;9.93;;;1.90;99.90;;;;;;5003357;28;20569;-83
2023/02/06 03:46:11;;;;;;;78.70;10.20;;;1.90;99.90;;;;;;5020457;28;20212;-84
2023/02/06 03:48:41;;;;;;;74.15;10.15;;;1.70;99.90;;;;;;5002657;28;20180;-83
2023/02/06 03:51:14;;;;;;;78.40;9.45;;;1.60;99.90;;;;;;5002755;28;20197;-85
2023/02/06 03:53:42;;;;;;;79.20;10.57;;;1.50;99.90;;;;;;5002808;28;20158;-85
2023/02/06 03:56:14;;;;;;;83.05;9.35;;;1.40;99.90;;;;;;5002800;28;20169;-85
2023/02/06 03:58:40;;;;;;;76.72;9.75;;;1.30;99.90;;;;;;5002257;28;20168;-84
2023/02/06 04:01:06;;;;;;;72.53;10.17;;;1.40;99.90;;;;;;5020261;28;20260;-85
2023/02/06 04:03:32;;;;;;;77.85;9.30;;;1.40;99.90;;;;;;5001918;28;20173;-84
2023/02/06 04:05:58;;;;;;;77.90;9.30;;;1.40;99.90;;;;;;5019567;28;20212;-84
2023/02/06 04:08:24;;;;;;;73.95;8.98;;;1.40;99.90;;;;;;5002192;28;20177;-85
2023/02/06 04:10:52;;;;;;;80.70;10.07;;;1.30;99.90;;;;;;5002506;28;20186;-84
2023/02/06 04:13:18;;;;;;;78.78;9.60;;;1.30;99.90;;;;;;5019831;28;20184;-84
2023/02/06 04:15:44;;;;;;;87.37;10.77;;;1.30;99.90;;;;;;5019811;28;20637;-84
2023/02/06 04:18:09;;;;;;;78.37;8.47;;;1.20;99.90;;;;;;5019446;28;20521;-84
2023/02/06 04:20:39;;;;;;;86.40;11.43;;;1.20;99.90;;;;;;5019531;28;20553;-84
2023/02/06 04:23:06;;;;;;;90.25;11.00;;;1.20;99.90;;;;;;5017345;28;20150;-84
2023/02/06 04:25:33;;;;;;;85.90;9.25;;;1.20;99.90;;;;;;5001970;28;20329;-84
2023/02/06 04:27:58;;;;;;;83.72;9.50;;;1.20;99.90;;;;;;5019237;28;20166;-84
2023/02/06 04:30:24;;;;;;;82.27;9.53;;;1.20;99.90;;;;;;5001487;28;20165;-84
2023/02/06 04:32:50;;;;;;;80.13;11.07;;;1.20;99.90;;;;;;5018874;28;20239;-84
2023/02/06 04:35:16;;;;;;;79.87;10.30;;;1.20;99.90;;;;;;5016989;28;20177;-84
2023/02/06 04:37:42;;;;;;;91.15;10.55;;;1.20;99.90;;;;;;5017701;28;20990;-84
2023/02/06 04:40:08;;;;;;;75.73;9.47;;;1.10;99.90;;;;;;5000479;28;20174;-84
2023/02/06 04:42:34;;;;;;;84.70;12.40;;;1.10;99.90;;;;;;5018384;28;20196;-84
2023/02/06 04:45:00;;;;;;;72.30;10.30;;;1.00;99.90;;;;;;5001011;28;20280;-84
2023/02/06 04:47:25;;;;;;;79.90;11.73;;;0.90;99.90;;;;;;5019129;28;20416;-84
2023/02/06 04:49:51;;;;;;;74.37;10.83;;;0.90;99.90;;;;;;5018616;28;20166;-84
2023/02/06 04:52:17;;;;;;;84.23;11.63;;;1.00;99.90;;;;;;5018640;28;20177;-84
2023/02/06 04:54:43;;;;;;;74.00;10.10;;;0.90;99.90;;;;;;5019540;28;20397;-83
2023/02/06 04:57:08;;;;;;;78.67;10.30;;;0.90;99.90;;;;;;5018812;28;20165;-84
2023/02/06 04:59:34;;;;;;;75.03;9.93;;;1.00;99.90;;;;;;5018427;28;20209;-83
2023/02/06 05:01:59;;;;;;;76.90;9.57;;;1.00;99.90;;;;;;5018636;28;20226;-83
2023/02/06 05:04:25;;;;;;;85.27;10.03;;;1.00;99.90;;;;;;5000868;28;20251;-84
2023/02/06 05:06:51;;;;;;;81.43;10.20;;;1.10;99.90;;;;;;5000670;28;20166;-84
2023/02/06 05:09:16;;;;;;;83.77;9.87;;;1.00;99.90;;;;;;5018139;28;20165;-84
2023/02/06 05:11:42;;;;;;;84.00;10.10;;;1.00;99.90;;;;;;5000717;28;20208;-84
2023/02/06 05:14:08;;;;;;;86.73;9.77;;;1.10;99.90;;;;;;5016652;28;20223;-84
2023/02/06 05:16:33;;;;;;;77.37;12.20;;;1.00;99.90;;;;;;5017780;28;20185;-83
2023/02/06 05:18:59;;;;;;;84.37;11.10;;;0.90;99.90;;;;;;5000597;28;20170;-84
2023/02/06 05:21:25;;;;;;;88.07;12.60;;;0.90;99.90;;;;;;5016532;28;20278;-84
2023/02/06 05:23:52;;;;;;;91.15;10.93;;;0.80;99.90;;;;;;5018283;28;20726;-84
2023/02/06 05:26:18;;;;;;;87.13;9.98;;;0.80;99.90;;;;;;5017901;28;20166;-84
2023/02/06 05:28:44;;;;;;;82.95;12.60;;;0.70;99.90;;;;;;5017866;28;20158;-83
2023/02/06 05:31:09;;;;;;;81.23;10.43;;;0.70;99.90;;;;;;5017847;28;20673;-83
2023/02/06 05:33:35;;;;;;;81.83;10.90;;;0.80;99.90;;;;;;5017012;28;20173;-84
2023/02/06 05:36:03;;;;;;;85.30;10.50;;;0.80;99.90;;;;;;5016979;28;20256;-84
2023/02/06 05:38:29;;;;;;;72.57;9.95;;;0.90;99.90;;;;;;5017358;28;20236;-83
2023/02/06 05:40:54;;;;;;;80.40;12.23;;;0.90;99.90;;;;;;5017465;28;20182;-83
2023/02/06 05:43:20;;;;;;;89.40;11.50;;;1.00;99.90;;;;;;5016060;28;20413;-83
2023/02/06 05:45:46;;;;;;;77.10;10.00;;;1.00;99.90;;;;;;5017423;28;20150;-84
2023/02/06 05:48:11;;;;;;;90.53;10.00;;;1.10;99.90;;;;;;5017557;28;20610;-83
2023/02/06 05:50:37;;;;;;;79.13;9.83;;;1.10;99.90;;;;;;4999764;28;20194;-83
2023/02/06 05:53:03;;;;;;;76.17;10.20;;;1.10;99.90;;;;;;5020590;28;20191;-83
2023/02/06 05:55:28;;;;;;;80.77;11.27;;;1.10;99.90;;;;;;5004474;28;20162;-84
2023/02/06 05:57:54;;;;;;;93.90;12.70;;;1.20;99.90;;;;;;5021419;28;20630;-83
2023/02/06 06:00:20;;;;;;;84.13;13.80;;;1.30;99.90;;;;;;5021368;28;20176;-83
2023/02/06 06:02:45;;;;;;;83.67;12.27;;;1.30;99.90;;;;;;5020973;28;20652;-83
2023/02/06 06:05:11;;;;;;;78.80;12.50;;;1.30;99.90;;;;;;5020053;28;20459;-83
2023/02/06 06:07:37;;;;;;;77.97;12.67;;;1.10;99.90;;;;;;5021248;28;20169;-83
2023/02/06 06:10:03;;;;;;;85.30;10.40;;;1.00;99.90;;;;;;5003576;28;20200;-83
2023/02/06 06:12:29;;;;;;;78.30;10.85;;;0.90;99.90;;;;;;5020600;28;20190;-82
2023/02/06 06:14:54;;;;;;;81.97;11.70;;;0.90;99.90;;;;;;5020860;28;20244;-83
2023/02/06 06:17:20;;;;;;;79.23;11.20;;;0.80;99.90;;;;;;5019470;28;20174;-83
2023/02/06 06:19:46;;;;;;;71.53;8.97;;;0.80;99.90;;;;;;5020482;28;20174;-83
2023/02/06 06:22:11;;;;;;;85.57;9.67;;;0.80;99.90;;;;;;5020725;28;20557;-83
2023/02/06 06:24:37;;;;;;;77.87;10.00;;;0.80;99.90;;;;;;5020344;28;20670;-83
2023/02/06 06:27:03;;;;;;;85.87;11.17;;;0.80;99.90;;;;;;5020609;28;20162;-83
2023/02/06 06:29:29;;;;;;;74.80;10.33;;;0.80;99.90;;;;;;5018868;28;20212;-83
2023/02/06 06:31:55;;;;;;;84.43;12.13;;;0.80;99.90;;;;;;5020513;28;20186;-83
2023/02/06 06:34:20;;;;;;;79.70;11.37;;;0.80;99.90;;;;;;5019247;28;20173;-83
2023/02/06 06:36:46;;;;;;;81.33;10.43;;;0.80;99.90;;;;;;5020037;28;20413;-82
2023/02/06 06:39:12;;;;;;;81.77;11.63;;;0.80;99.90;;;;;;5019629;28;20749;-83
2023/02/06 06:41:38;;;;;;;85.93;12.10;;;0.90;99.90;;;;;;5019810;28;20185;-81
2023/02/06 06:44:04;;;;;;;79.63;13.43;;;0.90;99.90;;;;;;5020155;28;20242;-82
2023/02/06 06:46:29;;;;;;;76.23;11.87;;;0.90;99.90;;;;;;5001989;28;20637;-82
2023/02/06 06:48:55;;;;;;;80.03;14.67;;;0.90;99.90;;;;;;5002421;28;20462;-83
2023/02/06 06:51:21;;;;;;;83.30;14.77;;;0.90;99.90;;;;;;5020088;28;20197;-83
2023/02/06 06:53:46;;;;;;;81.20;13.57;;;0.90;99.90;;;;;;5020364;28;20151;-84
2023/02/06 06:56:13;;;;;;;77.80;15.10;;;1.00;99.90;;;;;;5019874;28;20177;-83
2023/02/06 06:58:39;;;;;;;95.30;15.30;;;1.00;99.90;;;;;;5001913;28;20197;-83
2023/02/06 07:01:05;;;;;;;83.68;16.30;;;1.10;99.90;;;;;;5018519;28;20190;-84
2023/02/06 07:03:31;;;;;;;90.97;15.30;;;1.10;99.90;;;;;;5019084;28;20177;-83
2023/02/06 07:05:57;;;;;;;87.77;14.40;;;1.20;99.90;;;;;;5019717;28;20401;-83
2023/02/06 07:08:23;;;;;;;83.05;15.70;;;1.30;99.90;;;;;;5019442;28;20432;-83
2023/02/06 07:10:49;;;;;;;93.17;15.47;;;1.40;99.90;;;;;;5020504;28;20178;-83
2023/02/06 07:13:16;;;;;;;91.47;16.37;;;1.40;99.90;;;;;;5020868;28;20166;-83
2023/02/06 07:15:42;;;;;;;86.53;17.13;;;1.40;99.90;;;;;;5018418;28;20409;-84
2023/02/06 07:18:08;;;;;;;90.22;19.88;;;1.40;99.90;;;;;;5019500;28;20600;-83
2023/02/06 07:20:36;;;;;;;87.53;15.57;;;1.50;99.90;;;;;;5018247;28;20264;-84
2023/02/06 07:23:03;;;;;;;94.93;19.05;;;1.60;99.90;;;;;;5019904;28;20621;-84
2023/02/06 07:25:29;;;;;;;91.13;18.00;;;1.60;99.90;;;;;;5019150;28;20186;-84
2023/02/06 07:27:54;;;;;;;89.47;16.47;;;1.60;99.90;;;;;;5019453;28;20177;-84
2023/02/06 07:30:20;;;;;;;98.77;17.63;;;1.70;99.90;;;;;;5019738;28;20162;-84
2023/02/06 07:32:46;;;;;;;99.53;17.93;;;1.80;99.90;;;;;;5019171;28;20177;-83
2023/02/06 07:35:14;;;;;;;88.87;16.20;;;1.90;99.90;;;;;;5019129;28;20166;-84
2023/02/06 07:37:39;;;;;;;92.85;18.17;;;2.00;99.90;;;;;;5019062;28;20181;-83
2023/02/06 07:40:05;;;;;;;89.43;16.67;;;2.00;99.90;;;;;;5019392;28;20220;-83
2023/02/06 07:42:32;;;;;;;94.53;19.90;;;2.10;99.90;;;;;;5000797;28;20436;-83
2023/02/06 07:44:58;;;;;;;105.53;20.50;;;2.10;99.90;;;;;;5020273;28;20221;-84
2023/02/06 07:47:24;;;;;;;93.00;17.98;;;2.10;99.90;;;;;;5019043;28;20537;-84
2023/02/06 07:49:50;;;;;;;102.53;23.05;;;2.10;99.90;;;;;;5019950;28;20161;-84
2023/02/06 07:52:15;;;;;;;88.07;18.93;;;2.20;99.90;;;;;;5020003;28;20188;-84
2023/02/06 07:54:44;;;;;;;90.20;18.43;;;2.20;99.90;;;;;;5018299;28;20545;-82
2023/02/06 07:57:10;;;;;;;93.95;19.15;;;2.20;99.90;;;;;;5017901;28;20177;-82
2023/02/06 07:59:36;;;;;;;102.28;18.42;;;2.30;99.90;;;;;;5018333;28;20715;-81
2023/02/06 08:02:02;;;;;;;107.75;23.67;;;2.40;99.90;;;;;;5017137;28;20202;-84
2023/02/06 08:04:33;;;;;;;101.80;18.37;;;2.50;99.90;;;;;;5002084;28;20730;-83
2023/02/06 08:07:03;;;;;;;97.90;19.38;;;2.70;99.90;;;;;;5020118;28;20616;-83
2023/02/06 08:09:29;;;;;;;101.88;17.45;;;2.80;99.90;;;;;;5002626;28;20317;-83
2023/02/06 08:11:55;;;;;;;104.22;19.92;;;2.90;99.90;;;;;;5002208;28;20264;-83
2023/02/06 08:14:21;;;;;;;113.27;20.23;;;3.00;99.90;;;;;;5019790;28;20244;-83
2023/02/06 08:16:49;;;;;;;106.77;18.93;;;3.00;99.90;;;;;;5020403;28;20451;-84
2023/02/06 08:19:14;;;;;;;96.15;18.95;;;3.10;99.90;;;;;;5002471;28;20409;-83
2023/02/06 08:21:40;;;;;;;103.87;17.30;;;3.20;99.90;;;;;;5018915;28;20197;-84
2023/02/06 08:24:10;;;;;;;101.63;20.10;;;3.30;99.90;;;;;;5002956;28;20205;-84
2023/02/06 08:26:37;;;;;;;110.40;19.58;;;3.30;99.90;;;;;;5002676;28;20807;-84
2023/02/06 08:29:04;;;;;;;111.07;20.52;;;3.30;99.90;;;;;;5020121;28;20625;-83
2023/02/06 08:31:33;;;;;;;107.32;23.13;;;3.30;99.90;;;;;;5002294;28;20186;-84
2023/02/06 08:33:59;;;;;;;102.05;22.02;;;3.30;99.90;;;;;;5002966;28;20170;-84
2023/02/06 08:36:30;;;;;;;114.30;23.08;;;3.40;99.90;;;;;;5020029;28;20514;-84
2023/02/06 08:38:56;;;;;;;109.15;18.58;;;3.40;99.90;;;;;;5020167;28;20649;-84
2023/02/06 08:41:25;;;;;;;113.50;20.80;;;3.40;99.90;;;;;;5018797;28;20749;-84
2023/02/06 08:43:54;;;;;;;112.72;21.98;;;3.40;99.90;;;;;;5001789;28;20742;-84
2023/02/06 08:46:21;;;;;;;106.45;19.60;;;3.40;99.90;;;;;;5020726;28;20173;-83
2023/02/06 08:48:53;;;;;;;103.75;20.17;;;3.40;99.90;;;;;;5003045;28;20188;-83
2023/02/06 08:51:19;;;;;;;100.55;18.80;;;3.40;99.90;;;;;;5019923;28;20185;-84
2023/02/06 08:53:45;;;;;;;109.70;21.50;;;3.40;99.90;;;;;;5001706;28;20178;-84
2023/02/06 08:56:12;;;;;;;103.00;23.03;;;3.50;99.90;;;;;;5018134;28;20185;-84
2023/02/06 08:58:38;;;;;;;112.10;20.05;;;3.50;99.90;;;;;;5001775;28;20194;-83
2023/02/06 09:01:18;;;;;;;99.50;19.63;;;3.50;99.90;;;;;;5019244;28;20178;-84
2023/02/06 09:03:44;;;;;;;103.78;22.77;;;3.50;99.90;;;;;;5088426;22;20492;-83
2023/02/06 09:06:10;;;;;;;127.47;26.05;;;3.60;99.90;;;;;;5001513;28;20223;-83
2023/02/06 09:08:37;;;;;;;104.07;21.52;;;3.60;99.90;;;;;;5001153;28;20253;-83
2023/02/06 09:11:08;;;;;;;109.50;21.15;;;3.60;99.90;;;;;;5018908;28;20205;-84
2023/02/06 09:13:34;;;;;;;110.75;21.15;;;3.50;99.90;;;;;;5001455;28;20166;-85
2023/02/06 09:16:00;;;;;;;114.10;22.23;;;3.50;99.90;;;;;;5001407;28;20165;-85
2023/02/06 09:18:25;;;;;;;101.13;20.10;;;3.60;99.90;;;;;;5018866;28;20388;-85
2023/02/06 09:21:01;;;;;;;109.40;21.93;;;3.60;99.90;;;;;;5018633;28;20189;-84
2023/02/06 09:23:27;;;;;;;120.53;21.00;;;3.70;99.90;;;;;;5019158;28;20154;-85
2023/02/06 09:25:53;;;;;;;110.78;22.88;;;3.70;99.90;;;;;;5017701;28;20664;-85
2023/02/06 09:28:19;;;;;;;112.30;22.17;;;3.60;99.90;;;;;;5018381;28;20170;-85
2023/02/06 09:30:46;;;;;;;108.90;23.00;;;3.70;99.90;;;;;;5000623;28;20189;-83
2023/02/06 09:33:11;;;;;;;114.85;20.95;;;3.70;99.90;;;;;;5018425;28;20185;-84
2023/02/06 09:35:37;;;;;;;103.80;21.53;;;3.70;99.90;;;;;;5019140;28;20162;-85
2023/02/06 09:38:06;;;;;;;97.87;20.37;;;3.70;99.90;;;;;;5062942;22;20248;-85
2023/02/06 09:40:34;;;;;;;108.03;21.73;;;3.80;99.90;;;;;;5011340;28;20193;-85
2023/02/06 09:43:01;;;;;;;101.25;21.25;;;3.80;99.90;;;;;;5028481;28;20154;-84
2023/02/06 09:45:33;;;;;;;91.63;21.70;;;3.80;99.90;;;;;;5011300;28;20202;-84
2023/02/06 09:48:19;;;;;;;99.47;19.20;;;3.80;99.90;;;;;;5010806;28;20165;-84
2023/02/06 09:51:13;;;;;;;93.70;19.10;;;3.90;99.90;;;;;;5028386;28;20210;-84
2023/02/06 09:54:05;;;;;;;98.30;17.48;;;4.00;99.90;;;;;;5027846;28;20150;-85
2023/02/06 09:56:40;;;;;;;102.15;19.48;;;4.00;99.90;;;;;;5027656;28;20161;-84
2023/02/06 09:59:25;;;;;;;94.10;17.08;;;4.00;99.90;;;;;;5010786;28;20273;-84
2023/02/06 10:02:06;;;;;;;97.60;16.90;;;4.10;99.90;;;;;;5027812;28;20200;-84
2023/02/06 10:05:00;;;;;;;102.40;18.00;;;4.10;99.90;;;;;;5010848;28;20216;-84
2023/02/06 10:07:35;;;;;;;99.15;17.23;;;4.30;99.90;;;;;;5010587;28;20185;-84
2023/02/06 10:10:09;;;;;;;93.97;18.50;;;4.50;99.90;;;;;;5028399;28;20256;-84
2023/02/06 10:12:40;;;;;;;89.20;15.15;;;4.50;99.90;;;;;;5027242;28;20181;-84
2023/02/06 10:15:11;;;;;;;100.13;19.08;;;4.50;99.90;;;;;;5027343;28;20166;-84
2023/02/06 10:17:45;;;;;;;95.82;20.95;;;4.60;99.90;;;;;;5026207;28;20186;-84
2023/02/06 10:20:36;;;;;;;96.10;19.95;;;4.70;99.90;;;;;;5026623;28;20212;-84
2023/02/06 10:23:22;;;;;;;93.53;17.67;;;4.70;99.90;;;;;;5026959;28;20166;-84
2023/02/06 10:26:05;;;;;;;91.10;17.45;;;4.70;99.90;;;;;;5028291;28;20181;-84
2023/02/06 10:28:34;;;;;;;97.75;18.88;;;4.70;99.90;;;;;;5028037;28;20180;-84
2023/02/06 10:31:21;;;;;;;95.90;21.45;;;4.70;99.90;;;;;;5027577;28;20182;-84
2023/02/06 10:34:20;;;;;;;96.78;19.48;;;4.90;99.90;;;;;;5026847;28;20158;-84
2023/02/06 10:37:27;;;;;;;89.20;17.27;;;5.00;99.90;;;;;;5027845;28;20154;-83
2023/02/06 10:40:31;;;;;;;98.90;16.58;;;4.90;99.90;;;;;;5001554;28;20182;-84
2023/02/06 10:43:12;;;;;;;85.05;14.27;;;4.90;99.90;;;;;;5012585;28;20161;-84
2023/02/06 10:45:49;;;;;;;97.90;14.85;;;5.20;99.90;;;;;;5013985;28;20186;-84
2023/02/06 10:48:32;;;;;;;95.97;15.82;;;5.30;99.90;;;;;;5031011;28;20545;-84
2023/02/06 10:51:19;;;;;;;102.68;16.48;;;5.40;99.90;;;;;;5029719;28;20189;-84
2023/02/06 10:53:56;;;;;;;92.53;15.00;;;5.40;99.90;;;;;;5013844;28;20633;-84
2023/02/06 10:56:34;;;;;;;89.35;13.63;;;5.60;99.90;;;;;;5030463;28;20184;-84
2023/02/06 10:59:26;;;;;;;89.35;14.35;;;5.60;99.90;;;;;;5031212;28;20185;-84
2023/02/06 11:02:13;;;;;;;89.20;15.02;;;5.50;99.90;;;;;;5032005;28;20174;-84
2023/02/06 11:04:54;;;;;;;114.03;15.95;;;5.60;99.90;;;;;;5014074;28;20186;-84
2023/02/06 11:07:32;;;;;;;89.10;15.57;;;5.50;99.90;;;;;;5031357;28;20157;-84
2023/02/06 11:09:58;;;;;;;87.88;14.75;;;5.50;99.90;;;;;;5013769;28;20146;-84
2023/02/06 11:12:36;;;;;;;96.18;13.63;;;5.60;99.90;;;;;;5013781;28;20204;-84
2023/02/06 11:15:25;;;;;;;92.32;16.92;;;5.60;99.90;;;;;;5031292;28;20161;-84
2023/02/06 11:17:52;;;;;;;98.70;18.35;;;5.70;99.90;;;;;;5013694;28;20166;-84
2023/02/06 11:20:26;;;;;;;87.22;15.25;;;5.80;99.90;;;;;;5030629;28;20245;-83
2023/02/06 11:22:52;;;;;;;93.35;15.32;;;5.90;99.90;;;;;;5031262;28;20151;-84
2023/02/06 11:25:26;;;;;;;88.77;15.30;;;5.60;99.90;;;;;;5029148;28;20405;-84
2023/02/06 11:27:52;;;;;;;93.45;15.48;;;5.30;99.90;;;;;;5030880;28;20416;-84
2023/02/06 11:30:28;;;;;;;84.93;15.00;;;5.30;99.90;;;;;;5030373;28;20173;-83
2023/02/06 11:33:01;;;;;;;93.68;15.30;;;5.50;99.90;;;;;;5030255;28;20142;-84
2023/02/06 11:35:32;;;;;;;90.10;15.85;;;5.80;99.90;;;;;;5029751;28;20154;-84
2023/02/06 11:38:11;;;;;;;95.78;14.93;;;6.10;99.90;;;;;;5030362;28;20193;-84
2023/02/06 11:40:37;;;;;;;93.15;14.30;;;6.20;99.90;;;;;;5030442;28;20195;-84
2023/02/06 11:43:09;;;;;;;87.17;14.70;;;5.90;99.90;;;;;;5029859;28;20205;-85
2023/02/06 11:45:35;;;;;;;86.07;13.95;;;6.00;99.90;;;;;;5029773;28;20194;-83
2023/02/06 11:48:01;;;;;;;88.50;13.90;;;5.90;99.90;;;;;;5029578;28;20649;-82
2023/02/06 11:50:32;;;;;;;94.20;13.32;;;6.00;99.90;;;;;;5029069;28;20409;-82
2023/02/06 11:53:10;;;;;;;90.07;13.05;;;6.00;99.90;;;;;;5029556;28;20150;-82
2023/02/06 11:55:38;;;;;;;81.05;12.13;;;6.00;99.90;;;;;;5029885;28;20166;-82
2023/02/06 11:58:12;;;;;;;94.05;12.35;;;6.10;99.90;;;;;;5030293;28;20171;-82
2023/02/06 12:01:04;;;;;;;89.97;13.50;;;6.00;99.90;;;;;;5028646;28;20288;-82
2023/02/06 12:03:44;;;;;;;81.70;12.35;;;6.00;99.90;;;;;;5027920;28;20210;-82
2023/02/06 12:06:16;;;;;;;86.00;12.13;;;6.00;99.90;;;;;;5027913;28;20146;-82
2023/02/06 12:08:47;;;;;;;82.97;13.02;;;5.90;99.90;;;;;;5026567;28;20162;-82
2023/02/06 12:11:19;;;;;;;95.70;15.40;;;6.00;99.90;;;;;;5027328;28;20212;-82
2023/02/06 12:13:51;;;;;;;92.82;15.32;;;6.00;99.90;;;;;;5026525;28;20689;-82
2023/02/06 12:16:17;;;;;;;97.95;18.65;;;6.20;99.90;;;;;;5027682;28;20201;-82
2023/02/06 12:18:47;;;;;;;88.15;17.40;;;6.20;99.90;;;;;;5028016;28;20169;-82
2023/02/06 12:21:19;;;;;;;92.13;17.52;;;6.00;99.90;;;;;;5026525;28;20189;-82
2023/02/06 12:23:55;;;;;;;102.47;19.50;;;6.00;99.90;;;;;;5025397;28;20241;-82
2023/02/06 12:26:23;;;;;;;97.22;17.02;;;5.90;99.90;;;;;;5026309;28;20146;-82
2023/02/06 12:29:08;;;;;;;101.05;18.80;;;5.90;99.90;;;;;;5027455;28;20162;-83
2023/02/06 12:31:42;;;;;;;92.82;17.25;;;5.80;99.90;;;;;;5025230;28;20189;-84
2023/02/06 12:34:52;;;;;;;93.82;15.57;;;5.50;99.90;;;;;;5026749;28;20151;-82
2023/02/06 12:37:59;;;;;;;91.60;17.20;;;5.60;99.90;;;;;;4997730;28;20206;-82
2023/02/06 12:40:37;;;;;;;92.20;18.17;;;5.60;99.90;;;;;;5024254;28;20237;-84
2023/02/06 12:43:11;;;;;;;94.85;20.55;;;5.60;99.90;;;;;;5025178;28;20162;-83
2023/02/06 12:45:43;;;;;;;93.30;18.05;;;5.70;99.90;;;;;;5008962;28;20196;-82
2023/02/06 12:48:36;;;;;;;91.75;15.73;;;5.90;99.90;;;;;;5025702;28;20185;-82
2023/02/06 12:51:44;;;;;;;93.35;17.05;;;6.00;99.90;;;;;;5026744;28;20181;-85
2023/02/06 12:54:28;;;;;;;95.53;16.75;;;5.80;99.90;;;;;;5001658;28;20186;-84